Impacts TAF Board
For situational awareness. Not to be used for flight planning purposes.
IDs:

KSHV - Shreveport Rgnl, LA, US

Issued at 0540 UTC 18 Sep 2021
Updated at 0716 UTC 18 Sep 2021
Potential Impact None Slight Moderate High
Time0656Z 18/08Z 18/09Z 18/10Z 18/11Z 18/12Z 18/13Z 18/14Z 18/15Z 18/16Z 18/17Z 18/18Z 18/19Z 18/20Z>>
Type OBS PRVL PRVL PRVL PRVL PRVL PRVL PRVL PRVL PRVL PRVL PRVL PRVL PRVL
VIS 10 >6 >6 >6 4 4 4 4 >6 >6 >6 >6 5 5
CIG 16 14 7 7 5 5 5 5 8 8 15 15 25 25
Cover OVC OVC OVC OVC OVC OVC OVC OVC OVC OVC OVC OVC BKN BKN
FltCat MVFR MVFR IFR IFR IFR IFR IFR IFR IFR IFR MVFR MVFR MVFR MVFR
WX -- -- -- -- BR BR BR BR VCSH VCSH VCSH VCSH SHRA VCTS SHRA VCTS
WDir 10 VRB VRB VRB VRB VRB VRB VRB 20 20 30 30 40 40
WSpd 6 0 3 3 3 3 3 3 6 6 7 7 8 8
WGst -- -- -- -- -- -- -- -- -- -- -- -- -- --
Raw TAF
KSHV 180540Z 1806/1906 00000KT P6SM OVC014
  FM180900 VRB03KT P6SM OVC007
  FM181100 VRB03KT 4SM BR OVC005
  FM181500 02006KT P6SM VCSH OVC008
  FM181700 03007KT P6SM VCSH OVC015
  FM181900 04008KT 5SM SHRA VCTS BKN025CB
  FM190300 05006KT P6SM BKN035


Raw METAR
KSHV 180656Z 01006KT 10SM BKN016 OVC024 25/22 A3000 RMK AO2 SLP154 T02500217
KSHV 180603Z 35006KT 10SM OVC016 25/22 A2999 RMK AO2 T02500217
KSHV 180556Z 36006KT 10SM OVC013 25/22 A2999 RMK AO2 SLP152 T02500217 10267 20239 402830233 53003
KSHV 180508Z 00000KT 10SM OVC014 24/22 A2998 RMK AO2 T02440217
KSHV 180456Z 00000KT 10SM BKN015 24/22 A2998 RMK AO2 SLP148 T02440217
KSHV 180440Z 00000KT 10SM BKN015 24/21 A2998 RMK AO2 T02390211

METAR Board
Radar Display
Forecast Discussion
For situational awareness. Not to be used for flight planning purposes.